| time (UTC) | temp F | wind direction | speed MPH | gust MPH | rain 1hr in | rain 24hr in | rain mn in | humidity % | barometer mb |
| 20260507074912 | 52 | 278 | 3.0 | 6.0 | 0.00 | 0.05 | 0.00 | 78 | 1013.2 |
| 20260507073412 | 52 | 287 | 6.0 | 10.0 | 0.00 | 0.05 | 0.00 | 76 | 1013.2 |
| 20260507070412 | 52 | 213 | 3.0 | 7.0 | 0.00 | 0.05 | 0.00 | 76 | 1013.0 |
| 20260507064913 | 52 | 232 | 4.0 | 15.0 | 0.00 | 0.05 | 0.00 | 75 | 1012.8 |
| 20260507063413 | 51 | 216 | 2.0 | 4.0 | 0.00 | 0.05 | 0.00 | 80 | 1012.8 |
| 20260507061913 | 51 | 55 | 1.0 | 3.0 | 0.00 | 0.05 | 0.00 | 82 | 1012.7 |
| 20260507060413 | 51 | 133 | 1.0 | 4.0 | 0.00 | 0.05 | 0.00 | 79 | 1012.5 |
| 20260507054913 | 51 | 107 | 2.0 | 3.0 | 0.00 | 0.05 | 0.00 | 79 | 1012.4 |
| 20260507050413 | 50 | 308 | 1.0 | 2.0 | 0.00 | 0.05 | 0.00 | 80 | 1011.9 |
| 20260507044913 | 49 | 232 | 2.0 | 4.0 | 0.00 | 0.05 | 0.00 | 79 | 1011.7 |
| 20260507043413 | 50 | 222 | 1.0 | 4.0 | 0.00 | 0.05 | 0.00 | 79 | 1011.5 |
| 20260507041913 | 50 | 226 | 3.0 | 5.0 | 0.00 | 0.05 | 0.00 | 78 | 1011.3 |
| 20260507040413 | 50 | 198 | 2.0 | 5.0 | 0.00 | 0.05 | 0.00 | 78 | 1011.2 |
| 20260507034913 | 50 | 268 | 2.0 | 7.0 | 0.00 | 0.05 | 0.00 | 77 | 1011.2 |
| 20260507033413 | 50 | 216 | 2.0 | 5.0 | 0.00 | 0.05 | 0.00 | 78 | 1011.0 |
| 20260507031913 | 50 | 139 | 2.0 | 5.0 | 0.00 | 0.05 | 0.00 | 78 | 1011.1 |
| 20260507030413 | 50 | 249 | 2.0 | 4.0 | 0.00 | 0.05 | 0.00 | 78 | 1011.0 |
| 20260507024913 | 50 | 238 | 3.0 | 6.0 | 0.00 | 0.05 | 0.00 | 79 | 1011.0 |
| 20260507023412 | 50 | 203 | 3.0 | 6.0 | 0.00 | 0.05 | 0.00 | 78 | 1010.9 |
| 20260507020413 | 50 | 239 | 3.0 | 6.0 | 0.00 | 0.05 | 0.00 | 77 | 1010.7 |
| 20260507014913 | 50 | 203 | 4.0 | 7.0 | 0.00 | 0.05 | 0.00 | 78 | 1010.6 |
| 20260507013412 | 50 | 205 | 3.0 | 8.0 | 0.00 | 0.05 | 0.00 | 78 | 1010.6 |
| 20260507011913 | 49 | 237 | 3.0 | 8.0 | 0.00 | 0.05 | 0.00 | 78 | 1010.6 |
| 20260507010413 | 49 | 276 | 2.0 | 8.0 | 0.00 | 0.05 | 0.00 | 78 | 1010.6 |
| 20260507004913 | 49 | 172 | 3.0 | 7.0 | 0.00 | 0.05 | 0.00 | 78 | 1010.4 |
| 20260507001912 | 50 | 359 | 2.0 | 7.0 | 0.00 | 0.05 | 0.00 | 79 | 1010.3 |
| 20260507000413 | 50 | 209 | 2.0 | 6.0 | 0.00 | 0.05 | 0.00 | 79 | 1010.3 |
| 20260506234913 | 50 | 247 | 3.0 | 8.0 | 0.00 | 0.05 | 0.00 | 79 | 1010.3 |
| 20260506233411 | 49 | 169 | 5.0 | 8.0 | 0.00 | 0.05 | 0.00 | 80 | 1010.2 |
| 20260506231913 | 49 | 203 | 5.0 | 11.0 | 0.00 | 0.05 | 0.00 | 80 | 1010.2 |
| 20260506230413 | 49 | 221 | 6.0 | 11.0 | 0.00 | 0.05 | 0.00 | 80 | 1010.2 |
| 20260506224913 | 49 | 225 | 4.0 | 6.0 | 0.00 | 0.05 | 0.00 | 79 | 1010.0 |
| 20260506223412 | 50 | 249 | 3.0 | 7.0 | 0.00 | 0.05 | 0.00 | 79 | 1010.0 |
| 20260506221912 | 50 | 177 | 4.0 | 8.0 | 0.00 | 0.05 | 0.00 | 79 | 1010.0 |
| 20260506214912 | 50 | 242 | 3.0 | 7.0 | 0.00 | 0.05 | 0.05 | 79 | 1009.8 |
| 20260506213412 | 50 | 242 | 6.0 | 11.0 | 0.00 | 0.05 | 0.05 | 79 | 1009.8 |
| 20260506211912 | 50 | 225 | 4.0 | 9.0 | 0.00 | 0.05 | 0.05 | 79 | 1009.8 |
| 20260506210412 | 51 | 223 | 4.0 | 8.0 | 0.00 | 0.05 | 0.05 | 80 | 1009.6 |
| 20260506204912 | 50 | 243 | 4.0 | 8.0 | 0.00 | 0.05 | 0.05 | 80 | 1009.5 |
| 20260506203410 | 51 | 232 | 4.0 | 8.0 | 0.01 | 0.05 | 0.05 | 80 | 1009.4 |
| 20260506201912 | 51 | 263 | 6.0 | 12.0 | 0.01 | 0.05 | 0.05 | 81 | 1009.1 |
| 20260506200412 | 51 | 257 | 5.0 | 9.0 | 0.02 | 0.05 | 0.05 | 81 | 1009.3 |
| 20260506194912 | 51 | 230 | 5.0 | 10.0 | 0.03 | 0.05 | 0.05 | 82 | 1009.2 |
| 20260506193412 | 51 | 223 | 4.0 | 10.0 | 0.03 | 0.04 | 0.04 | 82 | 1009.0 |
| 20260506191912 | 52 | 220 | 5.0 | 15.0 | 0.04 | 0.04 | 0.04 | 81 | 1008.8 |
| 20260506190412 | 53 | 189 | 5.0 | 11.0 | 0.03 | 0.03 | 0.03 | 81 | 1008.5 |
| 20260506184913 | 54 | 359 | 5.0 | 11.0 | 0.02 | 0.02 | 0.02 | 80 | 1007.9 |
| 20260506183412 | 55 | 321 | 2.0 | 11.0 | 0.01 | 0.01 | 0.01 | 81 | 1007.6 |
| 20260506181912 | 56 | 212 | 3.0 | 7.0 | 0.00 | 0.00 | 0.00 | 78 | 1007.0 |
| 20260506180412 | 57 | 244 | 5.0 | 11.0 | 0.00 | 0.00 | 0.00 | 73 | 1006.7 |
| 20260506173412 | 58 | 218 | 3.0 | 6.0 | 0.00 | 0.00 | 0.00 | 68 | 1005.9 |
| 20260506171912 | 58 | 258 | 3.0 | 7.0 | 0.00 | 0.00 | 0.00 | 68 | 1005.6 |
| 20260506170413 | 57 | 158 | 3.0 | 9.0 | 0.00 | 0.00 | 0.00 | 68 | 1005.2 |
| 20260506164910 | 57 | 250 | 5.0 | 12.0 | 0.00 | 0.00 | 0.00 | 70 | 1004.4 |
| 20260506161912 | 58 | 292 | 8.0 | 18.0 | 0.00 | 0.00 | 0.00 | 70 | 1004.0 |
| 20260506160413 | 58 | 308 | 12.0 | 21.0 | 0.00 | 0.00 | 0.00 | 71 | 1003.7 |
| 20260506154913 | 63 | 309 | 12.0 | 19.0 | 0.00 | 0.00 | 0.00 | 58 | 1003.8 |
| 20260506153412 | 69 | 233 | 1.0 | 6.0 | 0.00 | 0.00 | 0.00 | 48 | 1002.2 |
| 20260506151912 | 70 | 65 | 5.0 | 9.0 | 0.00 | 0.00 | 0.00 | 46 | 1001.5 |
| 20260506150412 | 69 | 1 | 4.0 | 6.0 | 0.00 | 0.00 | 0.00 | 49 | 1001.9 |
| 20260506144912 | 69 | 64 | 3.0 | 7.0 | 0.00 | 0.00 | 0.00 | 49 | 1001.9 |
| 20260506143412 | 70 | 66 | 6.0 | 9.0 | 0.00 | 0.00 | 0.00 | 48 | 1002.2 |
| 20260506141913 | 71 | 83 | 6.0 | 12.0 | 0.00 | 0.00 | 0.00 | 45 | 1002.0 |
| 20260506140413 | 71 | 83 | 6.0 | 9.0 | 0.00 | 0.00 | 0.00 | 46 | 1002.3 |
| 20260506134912 | 71 | 100 | 4.0 | 9.0 | 0.00 | 0.00 | 0.00 | 45 | 1002.6 |
| 20260506133412 | 71 | 5 | 4.0 | 10.0 | 0.00 | 0.00 | 0.00 | 47 | 1002.7 |
| 20260506131913 | 71 | 36 | 7.0 | 11.0 | 0.00 | 0.00 | 0.00 | 48 | 1002.9 |
| 20260506130415 | 71 | 344 | 4.0 | 7.0 | 0.00 | 0.00 | 0.00 | 47 | 1003.1 |
| 20260506123414 | 70 | 76 | 3.0 | 8.0 | 0.00 | 0.00 | 0.00 | 49 | 1003.3 |
| 20260506121914 | 69 | 218 | 5.0 | 9.0 | 0.00 | 0.00 | 0.00 | 50 | 1003.6 |
| 20260506120414 | 68 | 50 | 4.0 | 11.0 | 0.00 | 0.00 | 0.00 | 52 | 1003.8 |
| 20260506114917 | 67 | 5 | 5.0 | 11.0 | 0.00 | 0.00 | 0.00 | 51 | 1003.9 |
| 20260506113414 | 67 | 263 | 5.0 | 10.0 | 0.00 | 0.00 | 0.00 | 53 | 1004.1 |
| 20260506111914 | 66 | 45 | 9.0 | 11.0 | 0.00 | 0.00 | 0.00 | 55 | 1004.2 |
| 20260506110413 | 65 | 53 | 4.0 | 11.0 | 0.00 | 0.00 | 0.00 | 56 | 1004.6 |
| 20260506104914 | 65 | 50 | 6.0 | 9.0 | 0.00 | 0.00 | 0.00 | 55 | 1005.1 |
| 20260506103413 | 65 | 86 | 7.0 | 9.0 | 0.00 | 0.00 | 0.00 | 55 | 1005.2 |
| 20260506101913 | 65 | 64 | 4.0 | 9.0 | 0.00 | 0.00 | 0.00 | 55 | 1005.2 |
| 20260506100414 | 65 | 126 | 7.0 | 12.0 | 0.00 | 0.00 | 0.00 | 55 | 1005.4 |
| 20260506094913 | 65 | 22 | 8.0 | 13.0 | 0.00 | 0.00 | 0.00 | 54 | 1005.5 |
| 20260506093414 | 66 | 71 | 6.0 | 13.0 | 0.00 | 0.00 | 0.00 | 54 | 1005.6 |
| 20260506091914 | 66 | 282 | 2.0 | 8.0 | 0.00 | 0.00 | 0.00 | 52 | 1005.4 |
| 20260506090412 | 65 | 105 | 6.0 | 13.0 | 0.00 | 0.00 | 0.00 | 54 | 1005.3 |
| 20260506084912 | 65 | 82 | 3.0 | 9.0 | 0.00 | 0.00 | 0.00 | 54 | 1005.5 |
| 20260506083413 | 65 | 54 | 4.0 | 8.0 | 0.00 | 0.00 | 0.00 | 54 | 1005.7 |
| 20260506081913 | 64 | 100 | 2.0 | 10.0 | 0.00 | 0.00 | 0.00 | 53 | 1005.8 |
| 20260506080412 | 64 | 107 | 2.0 | 5.0 | 0.00 | 0.00 | 0.00 | 54 | 1006.0 |